Kasuminome Air Base, Japan

11:38 AM JST on February 11, 2016 (GMT +0900)
SENDAI | | Change Station
CLOSE
Current Station
Personal Weather Station
Location: SENDAI, %u5BAE%u57CE%u770C
Elevation: 348 ft
Nearby Weather Stations

Elev 348 ft 38.28 °N, 140.85 °E | Updated 4 seconds ago

Scattered Clouds
Scattered Clouds
44.2 °F
Feels Like 40 °F
N
7.6
Wind Variable Wind from NNW
Gusts 7.6 mph

Today
High -- | Low -- °F
--% Chance of Precip.
Yesterday
High -- | Low -- °F
Precip. -- in
Pressure 30.42 in
Visibility 6.2 miles
Clouds Few 2000 ft
Scattered Clouds 5000 ft
Windchill 40 °F
Dew Point 21 °F
Humidity 39%
Rainfall 0.00 in
Snow Depth Not available.
6:32 AM 5:09 PM
Waxing Crescent, 8% visible
METAR RJSS 110200Z 31015KT 9999 FEW020 SCT050 05/M07 Q1030
Pressure 30.42 in
Visibility 6.2 miles
Clouds Few 2000 ft
Scattered Clouds 5000 ft
Windchill 40 °F
Dew Point 21 °F
Humidity 39%
Rainfall 0.00 in
Snow Depth Not available.
6:32 AM 5:09 PM
Waxing Crescent, 8% visible
METAR RJSS 110200Z 31015KT 9999 FEW020 SCT050 05/M07 Q1030

10-Day Weather Forecast

No radar image for this location.
×

Almanac

Astronomy

Feb. 11, 2016 Rise Set
Actual Time
Civil Twilight
Nautical Twilight
Astronomical Twilight
Moon
Length of Visible Light
Length of Day
Tomorrow will be .
, % of the Moon is Illuminated

Today's Extremes

Country Highs Country Lows

Community

WunderPhotos

Upload Photos

1,891,986 photos uploaded!

WunderBlog® & News

Nearby

Air Quality

  Air Quality AQ Index Pollutant
Not available.

Snow Depth

Station Depth Elevation

Earthquake Activity

City Distance Mag. Time & Date
Minimum magnitude displayed is 2.5.

Coastal Water Temperatures

Place Temperature

Stations

Nearby Weather Stations

Station Location Temp. Windchill Dew Point Humidity Wind Precip. Elev Updated Type